Slater, South Carolina
Current Conditions -  °F | °C
As of 7:53 PM on Sunday 21 Dec 2014 (Local Time) from KGMU Reporting Station
Overcast Overcast  
Wind Chill:   Ceiling: 2900
Heat Index:   Visibility: 10mi
Dew Point:   Wind: 7mph
Humidity: 71%   Direction: 50°NE
Pressure: 30.18"   Gusts: NA
Location:  35.03°N, 82.5°W
Report Text: KGMU 220053Z 05006KT 10SM OVC029 09/04 A3018 RMK AO2 SLP223 T00890039
Loading
Personal Weather Stations






























Interactive Weather Map New forecast layout! Learn more

10-Day Weather Forecast

Advertisements
Track Severe Weather on mobile